sensor_id;sensor_type;location;lat;lon;timestamp;temperature;humidity
69225;DHT22;56333;51.306;17.056;2023-11-19T00:00:01;4.41;82.63
69225;DHT22;56333;51.306;17.056;2023-11-19T00:01:55;4.39;82.60
69225;DHT22;56333;51.306;17.056;2023-11-19T00:03:23;4.41;82.60
69225;DHT22;56333;51.306;17.056;2023-11-19T00:04:52;4.39;82.50
69225;DHT22;56333;51.306;17.056;2023-11-19T00:06:20;4.41;82.43
69225;DHT22;56333;51.306;17.056;2023-11-19T00:07:49;4.37;82.43
69225;DHT22;56333;51.306;17.056;2023-11-19T00:09:18;4.37;82.40
69225;DHT22;56333;51.306;17.056;2023-11-19T00:10:46;4.37;82.30
69225;DHT22;56333;51.306;17.056;2023-11-19T00:12:15;4.36;82.28
69225;DHT22;56333;51.306;17.056;2023-11-19T00:13:44;4.34;82.22
69225;DHT22;56333;51.306;17.056;2023-11-19T00:15:13;4.32;82.20
69225;DHT22;56333;51.306;17.056;2023-11-19T00:16:42;4.29;82.20
69225;DHT22;56333;51.306;17.056;2023-11-19T00:18:10;4.27;82.32
69225;DHT22;56333;51.306;17.056;2023-11-19T00:19:39;4.24;82.35
69225;DHT22;56333;51.306;17.056;2023-11-19T00:21:08;4.22;82.35
69225;DHT22;56333;51.306;17.056;2023-11-19T00:22:36;4.20;82.30
69225;DHT22;56333;51.306;17.056;2023-11-19T00:24:06;4.18;82.32
69225;DHT22;56333;51.306;17.056;2023-11-19T00:25:36;4.17;82.35
69225;DHT22;56333;51.306;17.056;2023-11-19T00:27:05;4.15;82.35
69225;DHT22;56333;51.306;17.056;2023-11-19T00:28:35;4.14;82.38
69225;DHT22;56333;51.306;17.056;2023-11-19T00:30:06;4.09;82.40
69225;DHT22;56333;51.306;17.056;2023-11-19T00:31:37;4.08;82.40
69225;DHT22;56333;51.306;17.056;2023-11-19T00:33:06;4.04;82.47
69225;DHT22;56333;51.306;17.056;2023-11-19T00:34:34;4.05;82.47
69225;DHT22;56333;51.306;17.056;2023-11-19T00:36:03;4.03;82.50
69225;DHT22;56333;51.306;17.056;2023-11-19T00:37:33;3.98;82.63
69225;DHT22;56333;51.306;17.056;2023-11-19T00:39:01;3.97;82.57
69225;DHT22;56333;51.306;17.056;2023-11-19T00:40:30;3.92;82.68
69225;DHT22;56333;51.306;17.056;2023-11-19T00:41:58;3.93;82.72
69225;DHT22;56333;51.306;17.056;2023-11-19T00:43:27;3.89;82.82
69225;DHT22;56333;51.306;17.056;2023-11-19T00:44:55;3.89;82.97
69225;DHT22;56333;51.306;17.056;2023-11-19T00:46:25;3.87;83.00
69225;DHT22;56333;51.306;17.056;2023-11-19T00:47:54;3.84;82.95
69225;DHT22;56333;51.306;17.056;2023-11-19T00:49:23;3.82;83.20
69225;DHT22;56333;51.306;17.056;2023-11-19T00:50:52;3.83;83.05
69225;DHT22;56333;51.306;17.056;2023-11-19T00:52:20;3.80;83.35
69225;DHT22;56333;51.306;17.056;2023-11-19T00:53:48;3.79;83.38
69225;DHT22;56333;51.306;17.056;2023-11-19T00:55:17;3.78;83.30
69225;DHT22;56333;51.306;17.056;2023-11-19T00:56:45;3.73;83.40
69225;DHT22;56333;51.306;17.056;2023-11-19T00:58:16;3.73;83.45
69225;DHT22;56333;51.306;17.056;2023-11-19T00:59:45;3.71;83.45
69225;DHT22;56333;51.306;17.056;2023-11-19T01:01:14;3.69;83.30
69225;DHT22;56333;51.306;17.056;2023-11-19T01:02:43;3.73;83.25
69225;DHT22;56333;51.306;17.056;2023-11-19T01:04:14;3.74;83.35
69225;DHT22;56333;51.306;17.056;2023-11-19T01:05:43;3.71;83.53
69225;DHT22;56333;51.306;17.056;2023-11-19T01:07:12;3.69;83.47
69225;DHT22;56333;51.306;17.056;2023-11-19T01:08:40;3.64;83.60
69225;DHT22;56333;51.306;17.056;2023-11-19T01:10:10;3.67;83.32
69225;DHT22;56333;51.306;17.056;2023-11-19T01:11:39;3.65;83.38
69225;DHT22;56333;51.306;17.056;2023-11-19T01:13:09;3.63;83.55
69225;DHT22;56333;51.306;17.056;2023-11-19T01:14:37;3.61;83.30
69225;DHT22;56333;51.306;17.056;2023-11-19T01:16:07;3.59;83.38
69225;DHT22;56333;51.306;17.056;2023-11-19T01:17:37;3.57;83.45
69225;DHT22;56333;51.306;17.056;2023-11-19T01:19:07;3.54;83.50
69225;DHT22;56333;51.306;17.056;2023-11-19T01:20:37;3.54;83.30
69225;DHT22;56333;51.306;17.056;2023-11-19T01:22:06;3.54;83.38
69225;DHT22;56333;51.306;17.056;2023-11-19T01:23:34;3.54;83.28
69225;DHT22;56333;51.306;17.056;2023-11-19T01:25:03;3.49;83.20
69225;DHT22;56333;51.306;17.056;2023-11-19T01:26:33;3.48;83.32
69225;DHT22;56333;51.306;17.056;2023-11-19T01:28:02;3.47;83.15
69225;DHT22;56333;51.306;17.056;2023-11-19T01:29:31;3.43;83.22
69225;DHT22;56333;51.306;17.056;2023-11-19T01:30:59;3.42;83.30
69225;DHT22;56333;51.306;17.056;2023-11-19T01:32:27;3.41;83.32
69225;DHT22;56333;51.306;17.056;2023-11-19T01:33:56;3.34;83.47
69225;DHT22;56333;51.306;17.056;2023-11-19T01:35:24;3.35;83.35
69225;DHT22;56333;51.306;17.056;2023-11-19T01:36:53;3.31;83.30
69225;DHT22;56333;51.306;17.056;2023-11-19T01:38:21;3.31;83.32
69225;DHT22;56333;51.306;17.056;2023-11-19T01:39:50;3.27;83.35
69225;DHT22;56333;51.306;17.056;2023-11-19T01:41:18;3.27;83.43
69225;DHT22;56333;51.306;17.056;2023-11-19T01:42:49;3.23;83.47
69225;DHT22;56333;51.306;17.056;2023-11-19T01:44:19;3.22;83.32
69225;DHT22;56333;51.306;17.056;2023-11-19T01:45:48;3.21;83.38
69225;DHT22;56333;51.306;17.056;2023-11-19T01:47:16;3.21;83.30
69225;DHT22;56333;51.306;17.056;2023-11-19T01:48:46;3.17;83.50
69225;DHT22;56333;51.306;17.056;2023-11-19T01:50:14;3.11;83.57
69225;DHT22;56333;51.306;17.056;2023-11-19T01:51:43;3.14;83.32
69225;DHT22;56333;51.306;17.056;2023-11-19T01:53:13;3.12;83.38
69225;DHT22;56333;51.306;17.056;2023-11-19T01:54:42;3.14;83.30
69225;DHT22;56333;51.306;17.056;2023-11-19T01:56:11;3.18;83.20
69225;DHT22;56333;51.306;17.056;2023-11-19T01:57:41;3.18;83.10
69225;DHT22;56333;51.306;17.056;2023-11-19T01:59:11;3.18;83.10
69225;DHT22;56333;51.306;17.056;2023-11-19T02:00:40;3.20;83.10
69225;DHT22;56333;51.306;17.056;2023-11-19T02:02:09;3.21;83.03
69225;DHT22;56333;51.306;17.056;2023-11-19T02:03:37;3.18;82.97
69225;DHT22;56333;51.306;17.056;2023-11-19T02:05:06;3.16;82.90
69225;DHT22;56333;51.306;17.056;2023-11-19T02:06:35;3.13;83.07
69225;DHT22;56333;51.306;17.056;2023-11-19T02:08:07;3.14;83.05
69225;DHT22;56333;51.306;17.056;2023-11-19T02:09:37;3.17;83.00
69225;DHT22;56333;51.306;17.056;2023-11-19T02:11:09;3.19;82.97
69225;DHT22;56333;51.306;17.056;2023-11-19T02:12:38;3.18;82.93
69225;DHT22;56333;51.306;17.056;2023-11-19T02:14:08;3.18;82.93
69225;DHT22;56333;51.306;17.056;2023-11-19T02:15:37;3.19;82.90
69225;DHT22;56333;51.306;17.056;2023-11-19T02:17:06;3.20;82.85
69225;DHT22;56333;51.306;17.056;2023-11-19T02:18:52;3.22;82.80
69225;DHT22;56333;51.306;17.056;2023-11-19T02:20:21;3.18;82.78
69225;DHT22;56333;51.306;17.056;2023-11-19T02:21:50;3.17;82.75
69225;DHT22;56333;51.306;17.056;2023-11-19T02:23:20;3.14;82.78
69225;DHT22;56333;51.306;17.056;2023-11-19T02:24:59;3.16;82.78
69225;DHT22;56333;51.306;17.056;2023-11-19T02:26:35;3.14;82.75
69225;DHT22;56333;51.306;17.056;2023-11-19T02:28:08;3.08;82.90
69225;DHT22;56333;51.306;17.056;2023-11-19T02:29:37;3.11;82.75
69225;DHT22;56333;51.306;17.056;2023-11-19T02:31:07;3.07;82.80
69225;DHT22;56333;51.306;17.056;2023-11-19T02:32:35;3.05;82.90
69225;DHT22;56333;51.306;17.056;2023-11-19T02:34:04;3.01;83.03
69225;DHT22;56333;51.306;17.056;2023-11-19T02:35:33;3.03;82.93
69225;DHT22;56333;51.306;17.056;2023-11-19T02:37:02;2.99;83.07
69225;DHT22;56333;51.306;17.056;2023-11-19T02:38:31;2.99;82.93
69225;DHT22;56333;51.306;17.056;2023-11-19T02:40:02;2.95;83.00
69225;DHT22;56333;51.306;17.056;2023-11-19T02:41:33;2.93;83.00
69225;DHT22;56333;51.306;17.056;2023-11-19T02:43:03;2.93;83.10
69225;DHT22;56333;51.306;17.056;2023-11-19T02:44:32;2.90;83.10
69225;DHT22;56333;51.306;17.056;2023-11-19T02:46:03;2.88;83.15
69225;DHT22;56333;51.306;17.056;2023-11-19T02:47:33;2.80;83.45
69225;DHT22;56333;51.306;17.056;2023-11-19T02:49:01;2.77;83.68
69225;DHT22;56333;51.306;17.056;2023-11-19T02:50:30;2.76;83.43
69225;DHT22;56333;51.306;17.056;2023-11-19T02:51:59;2.74;83.57
69225;DHT22;56333;51.306;17.056;2023-11-19T02:53:30;2.76;83.43
69225;DHT22;56333;51.306;17.056;2023-11-19T02:54:58;2.73;83.50
69225;DHT22;56333;51.306;17.056;2023-11-19T02:56:26;2.70;83.68
69225;DHT22;56333;51.306;17.056;2023-11-19T02:57:59;2.67;83.82
69225;DHT22;56333;51.306;17.056;2023-11-19T02:59:34;2.70;83.63
69225;DHT22;56333;51.306;17.056;2023-11-19T03:01:07;2.69;83.60
69225;DHT22;56333;51.306;17.056;2023-11-19T03:02:47;2.70;83.63
69225;DHT22;56333;51.306;17.056;2023-11-19T03:04:23;2.68;83.55
69225;DHT22;56333;51.306;17.056;2023-11-19T03:05:53;2.71;83.43
69225;DHT22;56333;51.306;17.056;2023-11-19T03:07:21;2.69;83.50
69225;DHT22;56333;51.306;17.056;2023-11-19T03:08:50;2.65;83.65
69225;DHT22;56333;51.306;17.056;2023-11-19T03:10:19;2.64;83.63
69225;DHT22;56333;51.306;17.056;2023-11-19T03:11:48;2.65;83.60
69225;DHT22;56333;51.306;17.056;2023-11-19T03:13:16;2.62;83.93
69225;DHT22;56333;51.306;17.056;2023-11-19T03:14:45;2.59;83.82
69225;DHT22;56333;51.306;17.056;2023-11-19T03:16:15;2.58;83.80
69225;DHT22;56333;51.306;17.056;2023-11-19T03:17:43;2.57;83.85
69225;DHT22;56333;51.306;17.056;2023-11-19T03:19:12;2.61;83.80
69225;DHT22;56333;51.306;17.056;2023-11-19T03:20:40;2.58;83.88
69225;DHT22;56333;51.306;17.056;2023-11-19T03:22:09;2.55;84.00
69225;DHT22;56333;51.306;17.056;2023-11-19T03:23:37;2.53;84.05
69225;DHT22;56333;51.306;17.056;2023-11-19T03:25:08;2.56;83.88
69225;DHT22;56333;51.306;17.056;2023-11-19T03:26:37;2.54;84.05
69225;DHT22;56333;51.306;17.056;2023-11-19T03:28:07;2.53;83.95
69225;DHT22;56333;51.306;17.056;2023-11-19T03:29:36;2.51;84.05
69225;DHT22;56333;51.306;17.056;2023-11-19T03:31:05;2.53;83.93
69225;DHT22;56333;51.306;17.056;2023-11-19T03:32:34;2.52;83.85
69225;DHT22;56333;51.306;17.056;2023-11-19T03:34:03;2.52;83.95
69225;DHT22;56333;51.306;17.056;2023-11-19T03:35:31;2.51;83.97
69225;DHT22;56333;51.306;17.056;2023-11-19T03:37:00;2.47;84.03
69225;DHT22;56333;51.306;17.056;2023-11-19T03:38:28;2.45;84.20
69225;DHT22;56333;51.306;17.056;2023-11-19T03:39:57;2.49;84.07
69225;DHT22;56333;51.306;17.056;2023-11-19T03:41:26;2.46;84.25
69225;DHT22;56333;51.306;17.056;2023-11-19T03:42:54;2.45;84.13
69225;DHT22;56333;51.306;17.056;2023-11-19T03:44:24;2.44;84.00
69225;DHT22;56333;51.306;17.056;2023-11-19T03:45:54;2.45;84.22
69225;DHT22;56333;51.306;17.056;2023-11-19T03:47:22;2.43;84.22
69225;DHT22;56333;51.306;17.056;2023-11-19T03:48:51;2.40;84.20
69225;DHT22;56333;51.306;17.056;2023-11-19T03:50:19;2.39;84.18
69225;DHT22;56333;51.306;17.056;2023-11-19T03:51:48;2.37;84.25
69225;DHT22;56333;51.306;17.056;2023-11-19T03:53:16;2.36;84.45
69225;DHT22;56333;51.306;17.056;2023-11-19T03:54:45;2.39;84.20
69225;DHT22;56333;51.306;17.056;2023-11-19T03:56:13;2.37;84.20
69225;DHT22;56333;51.306;17.056;2023-11-19T03:57:42;2.39;84.05
69225;DHT22;56333;51.306;17.056;2023-11-19T03:59:12;2.37;84.07
69225;DHT22;56333;51.306;17.056;2023-11-19T04:00:43;2.36;84.05
69225;DHT22;56333;51.306;17.056;2023-11-19T04:02:11;2.37;84.13
69225;DHT22;56333;51.306;17.056;2023-11-19T04:03:40;2.33;84.43
69225;DHT22;56333;51.306;17.056;2023-11-19T04:05:09;2.32;84.40
69225;DHT22;56333;51.306;17.056;2023-11-19T04:06:37;2.35;84.13
69225;DHT22;56333;51.306;17.056;2023-11-19T04:09:47;2.29;84.22
69225;DHT22;56333;51.306;17.056;2023-11-19T04:11:16;2.31;84.13
69225;DHT22;56333;51.306;17.056;2023-11-19T04:12:45;2.33;84.15
69225;DHT22;56333;51.306;17.056;2023-11-19T04:14:14;2.31;84.13
69225;DHT22;56333;51.306;17.056;2023-11-19T04:15:43;2.30;84.15
69225;DHT22;56333;51.306;17.056;2023-11-19T04:17:11;2.33;84.20
69225;DHT22;56333;51.306;17.056;2023-11-19T04:18:40;2.29;84.35
69225;DHT22;56333;51.306;17.056;2023-11-19T04:20:10;2.32;84.28
69225;DHT22;56333;51.306;17.056;2023-11-19T04:21:40;2.33;84.10
69225;DHT22;56333;51.306;17.056;2023-11-19T04:23:09;2.34;84.00
69225;DHT22;56333;51.306;17.056;2023-11-19T04:24:37;2.31;84.28
69225;DHT22;56333;51.306;17.056;2023-11-19T04:26:07;2.32;84.25
69225;DHT22;56333;51.306;17.056;2023-11-19T04:27:36;2.35;84.13
69225;DHT22;56333;51.306;17.056;2023-11-19T04:29:06;2.35;84.10
69225;DHT22;56333;51.306;17.056;2023-11-19T04:30:35;2.33;84.13
69225;DHT22;56333;51.306;17.056;2023-11-19T04:32:04;2.32;84.20
69225;DHT22;56333;51.306;17.056;2023-11-19T04:33:33;2.35;84.05
69225;DHT22;56333;51.306;17.056;2023-11-19T04:35:01;2.33;84.20
69225;DHT22;56333;51.306;17.056;2023-11-19T04:36:31;2.32;84.18
69225;DHT22;56333;51.306;17.056;2023-11-19T04:38:01;2.30;84.22
69225;DHT22;56333;51.306;17.056;2023-11-19T04:39:30;2.30;84.25
69225;DHT22;56333;51.306;17.056;2023-11-19T04:40:58;2.27;84.38
69225;DHT22;56333;51.306;17.056;2023-11-19T04:42:29;2.28;84.25
69225;DHT22;56333;51.306;17.056;2023-11-19T04:43:58;2.30;84.22
69225;DHT22;56333;51.306;17.056;2023-11-19T04:45:26;2.34;84.10
69225;DHT22;56333;51.306;17.056;2023-11-19T04:46:56;2.37;84.05
69225;DHT22;56333;51.306;17.056;2023-11-19T04:48:25;2.34;84.00
69225;DHT22;56333;51.306;17.056;2023-11-19T04:49:54;2.35;84.07
69225;DHT22;56333;51.306;17.056;2023-11-19T04:51:22;2.37;83.95
69225;DHT22;56333;51.306;17.056;2023-11-19T04:52:51;2.37;83.90
69225;DHT22;56333;51.306;17.056;2023-11-19T04:54:19;2.39;83.80
69225;DHT22;56333;51.306;17.056;2023-11-19T04:55:51;2.40;83.70
69225;DHT22;56333;51.306;17.056;2023-11-19T04:57:19;2.37;83.80
69225;DHT22;56333;51.306;17.056;2023-11-19T04:58:46;2.36;83.78
69225;DHT22;56333;51.306;17.056;2023-11-19T05:00:16;2.33;83.90
69225;DHT22;56333;51.306;17.056;2023-11-19T05:01:49;2.36;83.88
69225;DHT22;56333;51.306;17.056;2023-11-19T05:03:17;2.37;83.80
69225;DHT22;56333;51.306;17.056;2023-11-19T05:04:48;2.34;83.90
69225;DHT22;56333;51.306;17.056;2023-11-19T05:06:17;2.33;83.95
69225;DHT22;56333;51.306;17.056;2023-11-19T05:07:45;2.37;83.90
69225;DHT22;56333;51.306;17.056;2023-11-19T05:09:14;2.35;83.97
69225;DHT22;56333;51.306;17.056;2023-11-19T05:10:42;2.35;83.90
69225;DHT22;56333;51.306;17.056;2023-11-19T05:12:10;2.33;83.95
69225;DHT22;56333;51.306;17.056;2023-11-19T05:13:39;2.31;84.00
69225;DHT22;56333;51.306;17.056;2023-11-19T05:15:10;2.32;84.00
69225;DHT22;56333;51.306;17.056;2023-11-19T05:16:40;2.35;83.97
69225;DHT22;56333;51.306;17.056;2023-11-19T05:18:08;2.34;83.97
69225;DHT22;56333;51.306;17.056;2023-11-19T05:19:37;2.35;83.95
69225;DHT22;56333;51.306;17.056;2023-11-19T05:21:06;2.34;84.05
69225;DHT22;56333;51.306;17.056;2023-11-19T05:22:34;2.37;83.93
69225;DHT22;56333;51.306;17.056;2023-11-19T05:24:03;2.37;83.88
69225;DHT22;56333;51.306;17.056;2023-11-19T05:25:32;2.36;83.97
69225;DHT22;56333;51.306;17.056;2023-11-19T05:27:00;2.37;83.88
69225;DHT22;56333;51.306;17.056;2023-11-19T05:28:30;2.38;83.93
69225;DHT22;56333;51.306;17.056;2023-11-19T05:29:59;2.39;83.90
69225;DHT22;56333;51.306;17.056;2023-11-19T05:31:27;2.42;83.88
69225;DHT22;56333;51.306;17.056;2023-11-19T05:32:56;2.40;83.90
69225;DHT22;56333;51.306;17.056;2023-11-19T05:34:27;2.41;83.95
69225;DHT22;56333;51.306;17.056;2023-11-19T05:35:56;2.39;84.05
69225;DHT22;56333;51.306;17.056;2023-11-19T05:37:27;2.43;83.80
69225;DHT22;56333;51.306;17.056;2023-11-19T05:38:56;2.42;83.78
69225;DHT22;56333;51.306;17.056;2023-11-19T05:40:24;2.43;83.70
69225;DHT22;56333;51.306;17.056;2023-11-19T05:41:52;2.48;83.70
69225;DHT22;56333;51.306;17.056;2023-11-19T05:43:21;2.47;83.70
69225;DHT22;56333;51.306;17.056;2023-11-19T05:44:49;2.51;83.63
69225;DHT22;56333;51.306;17.056;2023-11-19T05:46:18;2.51;83.60
69225;DHT22;56333;51.306;17.056;2023-11-19T05:47:46;2.51;83.65
69225;DHT22;56333;51.306;17.056;2023-11-19T05:49:15;2.52;83.68
69225;DHT22;56333;51.306;17.056;2023-11-19T05:50:43;2.53;83.65
69225;DHT22;56333;51.306;17.056;2023-11-19T05:52:13;2.57;83.53
69225;DHT22;56333;51.306;17.056;2023-11-19T05:53:42;2.59;83.53
69225;DHT22;56333;51.306;17.056;2023-11-19T05:55:11;2.62;83.45
69225;DHT22;56333;51.306;17.056;2023-11-19T05:56:39;2.62;83.43
69225;DHT22;56333;51.306;17.056;2023-11-19T05:58:12;2.66;83.38
69225;DHT22;56333;51.306;17.056;2023-11-19T05:59:41;2.65;83.43
69225;DHT22;56333;51.306;17.056;2023-11-19T06:01:09;2.67;83.38
69225;DHT22;56333;51.306;17.056;2023-11-19T06:02:38;2.66;83.30
69225;DHT22;56333;51.306;17.056;2023-11-19T06:04:07;2.65;83.30
69225;DHT22;56333;51.306;17.056;2023-11-19T06:05:35;2.68;83.25
69225;DHT22;56333;51.306;17.056;2023-11-19T06:07:04;2.68;83.25
69225;DHT22;56333;51.306;17.056;2023-11-19T06:08:32;2.72;83.22
69225;DHT22;56333;51.306;17.056;2023-11-19T06:10:01;2.70;83.22
69225;DHT22;56333;51.306;17.056;2023-11-19T06:11:30;2.69;83.25
69225;DHT22;56333;51.306;17.056;2023-11-19T06:13:00;2.72;83.25
69225;DHT22;56333;51.306;17.056;2023-11-19T06:14:29;2.70;83.30
69225;DHT22;56333;51.306;17.056;2023-11-19T06:15:57;2.69;83.30
69225;DHT22;56333;51.306;17.056;2023-11-19T06:17:27;2.70;83.35
69225;DHT22;56333;51.306;17.056;2023-11-19T06:18:55;2.71;83.40
69225;DHT22;56333;51.306;17.056;2023-11-19T06:20:24;2.73;83.30
69225;DHT22;56333;51.306;17.056;2023-11-19T06:21:53;2.76;83.40
69225;DHT22;56333;51.306;17.056;2023-11-19T06:23:22;2.76;83.40
69225;DHT22;56333;51.306;17.056;2023-11-19T06:24:50;2.79;83.20
69225;DHT22;56333;51.306;17.056;2023-11-19T06:26:19;2.79;83.20
69225;DHT22;56333;51.306;17.056;2023-11-19T06:27:47;2.79;83.20
69225;DHT22;56333;51.306;17.056;2023-11-19T06:29:16;2.81;83.20
69225;DHT22;56333;51.306;17.056;2023-11-19T06:30:45;2.84;83.10
69225;DHT22;56333;51.306;17.056;2023-11-19T06:32:13;2.83;83.10
69225;DHT22;56333;51.306;17.056;2023-11-19T06:33:41;2.83;83.18
69225;DHT22;56333;51.306;17.056;2023-11-19T06:35:10;2.87;83.13
69225;DHT22;56333;51.306;17.056;2023-11-19T06:36:39;2.84;83.10
69225;DHT22;56333;51.306;17.056;2023-11-19T06:38:08;2.88;83.10
69225;DHT22;56333;51.306;17.056;2023-11-19T06:39:38;2.88;82.95
69225;DHT22;56333;51.306;17.056;2023-11-19T06:41:08;2.85;83.10
69225;DHT22;56333;51.306;17.056;2023-11-19T06:42:37;2.84;83.13
69225;DHT22;56333;51.306;17.056;2023-11-19T06:44:05;2.88;83.10
69225;DHT22;56333;51.306;17.056;2023-11-19T06:45:34;2.88;83.10
69225;DHT22;56333;51.306;17.056;2023-11-19T06:47:02;2.92;83.03
69225;DHT22;56333;51.306;17.056;2023-11-19T06:48:32;2.91;83.10
69225;DHT22;56333;51.306;17.056;2023-11-19T06:50:00;2.91;83.13
69225;DHT22;56333;51.306;17.056;2023-11-19T06:51:31;2.91;83.15
69225;DHT22;56333;51.306;17.056;2023-11-19T06:52:59;2.92;83.13
69225;DHT22;56333;51.306;17.056;2023-11-19T06:54:29;2.92;83.18
69225;DHT22;56333;51.306;17.056;2023-11-19T06:55:57;2.90;83.28
69225;DHT22;56333;51.306;17.056;2023-11-19T06:57:26;2.95;83.15
69225;DHT22;56333;51.306;17.056;2023-11-19T06:58:56;2.92;83.25
69225;DHT22;56333;51.306;17.056;2023-11-19T07:00:25;2.95;83.20
69225;DHT22;56333;51.306;17.056;2023-11-19T07:01:53;2.96;83.20
69225;DHT22;56333;51.306;17.056;2023-11-19T07:03:23;2.96;83.20
69225;DHT22;56333;51.306;17.056;2023-11-19T07:04:52;2.99;83.18
69225;DHT22;56333;51.306;17.056;2023-11-19T07:06:21;2.97;83.25
69225;DHT22;56333;51.306;17.056;2023-11-19T07:07:50;3.01;83.15
69225;DHT22;56333;51.306;17.056;2023-11-19T07:09:19;2.98;83.22
69225;DHT22;56333;51.306;17.056;2023-11-19T07:10:48;3.01;83.10
69225;DHT22;56333;51.306;17.056;2023-11-19T07:12:16;3.02;83.00
69225;DHT22;56333;51.306;17.056;2023-11-19T07:13:44;2.99;83.18
69225;DHT22;56333;51.306;17.056;2023-11-19T07:15:13;3.00;83.10
69225;DHT22;56333;51.306;17.056;2023-11-19T07:16:43;3.01;83.15
69225;DHT22;56333;51.306;17.056;2023-11-19T07:18:11;3.05;83.20
69225;DHT22;56333;51.306;17.056;2023-11-19T07:19:40;3.06;83.10
69225;DHT22;56333;51.306;17.056;2023-11-19T07:21:08;3.07;83.15
69225;DHT22;56333;51.306;17.056;2023-11-19T07:22:37;3.12;83.18
69225;DHT22;56333;51.306;17.056;2023-11-19T07:24:08;3.14;83.10
69225;DHT22;56333;51.306;17.056;2023-11-19T07:25:38;3.14;83.20
69225;DHT22;56333;51.306;17.056;2023-11-19T07:27:07;3.18;83.10
69225;DHT22;56333;51.306;17.056;2023-11-19T07:28:36;3.21;83.03
69225;DHT22;56333;51.306;17.056;2023-11-19T07:30:06;3.23;83.00
69225;DHT22;56333;51.306;17.056;2023-11-19T07:31:36;3.21;83.07
69225;DHT22;56333;51.306;17.056;2023-11-19T07:33:05;3.23;83.03
69225;DHT22;56333;51.306;17.056;2023-11-19T07:34:33;3.24;83.10
69225;DHT22;56333;51.306;17.056;2023-11-19T07:36:02;3.29;83.07
69225;DHT22;56333;51.306;17.056;2023-11-19T07:37:32;3.29;83.07
69225;DHT22;56333;51.306;17.056;2023-11-19T07:39:00;3.33;83.07
69225;DHT22;56333;51.306;17.056;2023-11-19T07:40:30;3.34;83.00
69225;DHT22;56333;51.306;17.056;2023-11-19T07:41:58;3.40;83.00
69225;DHT22;56333;51.306;17.056;2023-11-19T07:43:28;3.44;82.82
69225;DHT22;56333;51.306;17.056;2023-11-19T07:44:56;3.45;82.80
69225;DHT22;56333;51.306;17.056;2023-11-19T07:46:24;3.44;82.82
69225;DHT22;56333;51.306;17.056;2023-11-19T07:47:53;3.44;82.90
69225;DHT22;56333;51.306;17.056;2023-11-19T07:49:21;3.50;82.90
69225;DHT22;56333;51.306;17.056;2023-11-19T07:50:50;3.51;82.90
69225;DHT22;56333;51.306;17.056;2023-11-19T07:52:19;3.51;82.80
69225;DHT22;56333;51.306;17.056;2023-11-19T07:53:47;3.51;82.85
69225;DHT22;56333;51.306;17.056;2023-11-19T07:55:16;3.54;82.75
69225;DHT22;56333;51.306;17.056;2023-11-19T07:56:46;3.54;82.65
69225;DHT22;56333;51.306;17.056;2023-11-19T07:58:14;3.59;82.60
69225;DHT22;56333;51.306;17.056;2023-11-19T07:59:43;3.60;82.43
69225;DHT22;56333;51.306;17.056;2023-11-19T08:01:11;3.58;82.47
69225;DHT22;56333;51.306;17.056;2023-11-19T08:02:41;3.59;82.60
69225;DHT22;56333;51.306;17.056;2023-11-19T08:04:10;3.62;82.50
69225;DHT22;56333;51.306;17.056;2023-11-19T08:05:39;3.64;82.47
69225;DHT22;56333;51.306;17.056;2023-11-19T08:07:08;3.69;82.43
69225;DHT22;56333;51.306;17.056;2023-11-19T08:08:36;3.66;82.18
69225;DHT22;56333;51.306;17.056;2023-11-19T08:10:06;3.65;82.32
69225;DHT22;56333;51.306;17.056;2023-11-19T08:11:36;3.63;82.43
69225;DHT22;56333;51.306;17.056;2023-11-19T08:13:05;3.63;82.50
69225;DHT22;56333;51.306;17.056;2023-11-19T08:14:34;3.63;82.40
69225;DHT22;56333;51.306;17.056;2023-11-19T08:16:03;3.62;82.40
69225;DHT22;56333;51.306;17.056;2023-11-19T08:17:33;3.59;82.50
69225;DHT22;56333;51.306;17.056;2023-11-19T08:19:02;3.58;82.43
69225;DHT22;56333;51.306;17.056;2023-11-19T08:20:30;3.55;82.40
69225;DHT22;56333;51.306;17.056;2023-11-19T08:21:59;3.53;82.43
69225;DHT22;56333;51.306;17.056;2023-11-19T08:23:27;3.47;82.50
69225;DHT22;56333;51.306;17.056;2023-11-19T08:24:56;3.43;82.57
69225;DHT22;56333;51.306;17.056;2023-11-19T08:26:24;3.41;82.68
69225;DHT22;56333;51.306;17.056;2023-11-19T08:27:53;3.36;82.82
69225;DHT22;56333;51.306;17.056;2023-11-19T08:29:21;3.33;82.90
69225;DHT22;56333;51.306;17.056;2023-11-19T08:30:51;3.29;83.03
69225;DHT22;56333;51.306;17.056;2023-11-19T08:32:20;3.29;83.00
69225;DHT22;56333;51.306;17.056;2023-11-19T08:33:48;3.30;83.05
69225;DHT22;56333;51.306;17.056;2023-11-19T08:35:17;3.26;83.05
69225;DHT22;56333;51.306;17.056;2023-11-19T08:36:46;3.24;83.18
69225;DHT22;56333;51.306;17.056;2023-11-19T08:38:17;3.21;83.30
69225;DHT22;56333;51.306;17.056;2023-11-19T08:39:46;3.21;83.30
69225;DHT22;56333;51.306;17.056;2023-11-19T08:41:15;3.18;83.43
69225;DHT22;56333;51.306;17.056;2023-11-19T08:42:43;3.20;83.30
69225;DHT22;56333;51.306;17.056;2023-11-19T08:44:12;3.19;83.32
69225;DHT22;56333;51.306;17.056;2023-11-19T08:45:40;3.20;83.40
69225;DHT22;56333;51.306;17.056;2023-11-19T08:47:08;3.18;83.35
69225;DHT22;56333;51.306;17.056;2023-11-19T08:48:37;3.17;83.50
69225;DHT22;56333;51.306;17.056;2023-11-19T08:50:07;3.18;83.43
69225;DHT22;56333;51.306;17.056;2023-11-19T08:51:36;3.15;83.40
69225;DHT22;56333;51.306;17.056;2023-11-19T08:53:04;3.18;83.43
69225;DHT22;56333;51.306;17.056;2023-11-19T08:54:33;3.17;83.45
69225;DHT22;56333;51.306;17.056;2023-11-19T08:56:02;3.18;83.45
69225;DHT22;56333;51.306;17.056;2023-11-19T08:57:32;3.17;83.50
69225;DHT22;56333;51.306;17.056;2023-11-19T08:59:00;3.17;83.50
69225;DHT22;56333;51.306;17.056;2023-11-19T09:00:29;3.19;83.38
69225;DHT22;56333;51.306;17.056;2023-11-19T09:01:57;3.18;83.30
69225;DHT22;56333;51.306;17.056;2023-11-19T09:03:26;3.18;83.32
69225;DHT22;56333;51.306;17.056;2023-11-19T09:04:54;3.13;83.40
69225;DHT22;56333;51.306;17.056;2023-11-19T09:06:22;3.13;83.40
69225;DHT22;56333;51.306;17.056;2023-11-19T09:07:51;3.09;83.43
69225;DHT22;56333;51.306;17.056;2023-11-19T09:09:20;3.10;83.32
69225;DHT22;56333;51.306;17.056;2023-11-19T09:10:49;3.06;83.47
69225;DHT22;56333;51.306;17.056;2023-11-19T09:12:18;3.06;83.50
69225;DHT22;56333;51.306;17.056;2023-11-19T09:13:46;3.04;83.63
69225;DHT22;56333;51.306;17.056;2023-11-19T09:15:15;3.00;83.70
69225;DHT22;56333;51.306;17.056;2023-11-19T09:16:43;2.97;83.65
69225;DHT22;56333;51.306;17.056;2023-11-19T09:18:12;2.97;83.70
69225;DHT22;56333;51.306;17.056;2023-11-19T09:19:40;2.92;83.82
69225;DHT22;56333;51.306;17.056;2023-11-19T09:21:09;2.91;83.85
69225;DHT22;56333;51.306;17.056;2023-11-19T09:22:38;2.88;83.90
69225;DHT22;56333;51.306;17.056;2023-11-19T09:24:08;2.83;83.90